Martins Creek, Pennsylvania
Current Conditions -  °F | °C
As of 6:51 AM on Tuesday 21 Oct 2014 (Local Time) from KABE Reporting Station
Overcast Overcast  
Wind Chill: 50°   Ceiling: 5500
Heat Index: 50°   Visibility: 10mi
Dew Point: 48°   Wind: 0mph
Humidity: 93%   Direction: NA
Pressure: 29.87"   Gusts: NA
Location:  40.78°N, 75.19°W
Report Text: KABE 211051Z AUTO 00000KT 10SM SCT046 BKN055 OVC100 10/09 A2987 RMK AO2 SLP116 T01000089 TSNO
Loading
Personal Weather Stations






























Interactive Weather Map New forecast layout! Learn more

10-Day Weather Forecast

Advertisements
Track Severe Weather on mobile